AXB228 VOMM-VOHS
Flight info
| Callsign | AXB228 |
|---|---|
| Flight time | 0h 51m |
| Altitude | 34000 |
| Route | KAMGU2B KAMGU W20 LEDOB LEDOB8 |
| Aircraft | B738/M-SDE2E3FGHIRWXY/LB1 |
Departure
| Time | 2026-04-26 19:08 |
|---|---|
| Airport | Chennai International Airport (VOMM) |
Arrival
| Time | 2026-04-26 19:59 |
|---|---|
| Airport | Rajiv Gandhi International Airport (VOHS) |
| Time | Latitude | Longitude | Altitude | Speed | Heading |
|---|---|---|---|---|---|
| 2026-04-26 18:44 | 12.98221 | 80.15990 | 54 ft | 0 kts | 160° |
| 2026-04-26 18:55 | 12.98230 | 80.15986 | 47 ft | 2 kts | 155° |
| 2026-04-26 18:55 | 12.98246 | 80.15979 | 51 ft | 2 kts | 154° |
| 2026-04-26 18:55 | 12.98260 | 80.15971 | 47 ft | 2 kts | 147° |
| 2026-04-26 18:56 | 12.98273 | 80.15961 | 50 ft | 2 kts | 133° |
| 2026-04-26 18:56 | 12.98282 | 80.15947 | 49 ft | 2 kts | 100° |
| 2026-04-26 18:56 | 12.98282 | 80.15931 | 48 ft | 2 kts | 71° |
| 2026-04-26 18:56 | 12.98280 | 80.15926 | 48 ft | 0 kts | 68° |
| 2026-04-26 18:59 | 12.98289 | 80.15954 | 49 ft | 6 kts | 76° |
| 2026-04-26 18:59 | 12.98301 | 80.15994 | 49 ft | 7 kts | 68° |
| 2026-04-26 19:00 | 12.98322 | 80.16040 | 49 ft | 7 kts | 65° |
| 2026-04-26 19:00 | 12.98344 | 80.16087 | 50 ft | 7 kts | 65° |
| 2026-04-26 19:00 | 12.98362 | 80.16133 | 52 ft | 7 kts | 68° |
| 2026-04-26 19:00 | 12.98398 | 80.16163 | 53 ft | 7 kts | 15° |
| 2026-04-26 19:01 | 12.98444 | 80.16152 | 52 ft | 7 kts | 343° |
| 2026-04-26 19:01 | 12.98488 | 80.16135 | 52 ft | 7 kts | 340° |
| 2026-04-26 19:01 | 12.98531 | 80.16143 | 54 ft | 7 kts | 41° |
| 2026-04-26 19:01 | 12.98549 | 80.16185 | 49 ft | 6 kts | 69° |
| 2026-04-26 19:02 | 12.98571 | 80.16246 | 53 ft | 12 kts | 69° |
| 2026-04-26 19:02 | 12.98599 | 80.16323 | 54 ft | 11 kts | 68° |
| 2026-04-26 19:02 | 12.98628 | 80.16396 | 53 ft | 11 kts | 69° |
| 2026-04-26 19:02 | 12.98646 | 80.16444 | 55 ft | 11 kts | 69° |
| 2026-04-26 19:03 | 12.98684 | 80.16543 | 53 ft | 11 kts | 69° |
| 2026-04-26 19:03 | 12.98712 | 80.16617 | 52 ft | 11 kts | 69° |
| 2026-04-26 19:03 | 12.98740 | 80.16689 | 52 ft | 11 kts | 69° |
| 2026-04-26 19:03 | 12.98772 | 80.16774 | 53 ft | 14 kts | 69° |
| 2026-04-26 19:04 | 12.98816 | 80.16888 | 52 ft | 19 kts | 70° |
| 2026-04-26 19:04 | 12.98862 | 80.17017 | 54 ft | 22 kts | 69° |
| 2026-04-26 19:04 | 12.98932 | 80.17202 | 50 ft | 28 kts | 65° |
| 2026-04-26 19:04 | 12.99010 | 80.17374 | 52 ft | 26 kts | 69° |
| 2026-04-26 19:05 | 12.99139 | 80.17686 | 51 ft | 17 kts | 40° |
| 2026-04-26 19:05 | 12.99221 | 80.17760 | 54 ft | 15 kts | 65° |
| 2026-04-26 19:05 | 12.99258 | 80.17857 | 55 ft | 14 kts | 69° |
| 2026-04-26 19:06 | 12.99292 | 80.17952 | 55 ft | 14 kts | 71° |
| 2026-04-26 19:06 | 12.99326 | 80.18045 | 51 ft | 14 kts | 69° |
| 2026-04-26 19:06 | 12.99383 | 80.18118 | 55 ft | 10 kts | 17° |
| 2026-04-26 19:06 | 12.99442 | 80.18093 | 57 ft | 10 kts | 305° |
| 2026-04-26 19:07 | 12.99445 | 80.18027 | 57 ft | 9 kts | 247° |
| 2026-04-26 19:07 | 12.99405 | 80.17930 | 51 ft | 40 kts | 249° |
| 2026-04-26 19:07 | 12.99189 | 80.17368 | 51 ft | 126 kts | 249° |
| 2026-04-26 19:07 | 12.98784 | 80.16316 | 230 ft | 183 kts | 246° |
| 2026-04-26 19:08 | 12.98324 | 80.15054 | 1240 ft | 192 kts | 252° |
| 2026-04-26 19:08 | 12.98478 | 80.13658 | 1892 ft | 216 kts | 304° |
| 2026-04-26 19:08 | 12.99593 | 80.12751 | 2917 ft | 206 kts | 331° |
| 2026-04-26 19:08 | 13.00993 | 80.12531 | 3646 ft | 208 kts | 6° |
| 2026-04-26 19:09 | 13.02510 | 80.12678 | 3964 ft | 230 kts | 5° |
| 2026-04-26 19:09 | 13.04185 | 80.12822 | 4170 ft | 251 kts | 5° |
| 2026-04-26 19:09 | 13.05981 | 80.12972 | 4469 ft | 270 kts | 6° |
| 2026-04-26 19:09 | 13.07908 | 80.13221 | 4858 ft | 284 kts | 9° |
| 2026-04-26 19:10 | 13.09853 | 80.13513 | 5527 ft | 282 kts | 9° |
| 2026-04-26 19:10 | 13.11787 | 80.13806 | 5933 ft | 282 kts | 10° |
| 2026-04-26 19:10 | 13.13726 | 80.14095 | 6759 ft | 280 kts | 10° |
| 2026-04-26 19:10 | 13.15655 | 80.14379 | 7574 ft | 281 kts | 10° |
| 2026-04-26 19:11 | 13.17570 | 80.14658 | 8349 ft | 282 kts | 11° |
| 2026-04-26 19:11 | 13.19520 | 80.14941 | 9136 ft | 283 kts | 11° |
| 2026-04-26 19:11 | 13.21488 | 80.15163 | 9896 ft | 287 kts | 4° |
| 2026-04-26 19:11 | 13.23537 | 80.15080 | 10266 ft | 306 kts | 359° |
| 2026-04-26 19:12 | 13.25742 | 80.14898 | 10430 ft | 328 kts | 358° |
| 2026-04-26 19:12 | 13.28073 | 80.14720 | 10798 ft | 340 kts | 358° |
| 2026-04-26 19:12 | 13.30457 | 80.14557 | 11376 ft | 345 kts | 358° |
| 2026-04-26 19:12 | 13.32824 | 80.14053 | 11995 ft | 351 kts | 341° |
| 2026-04-26 19:13 | 13.35096 | 80.13106 | 12660 ft | 353 kts | 339° |
| 2026-04-26 19:13 | 13.37365 | 80.12098 | 13268 ft | 357 kts | 338° |
| 2026-04-26 19:13 | 13.39623 | 80.11082 | 13845 ft | 360 kts | 338° |
| 2026-04-26 19:13 | 13.41927 | 80.10049 | 14418 ft | 362 kts | 338° |
| 2026-04-26 19:14 | 13.44248 | 80.09017 | 14991 ft | 364 kts | 338° |
| 2026-04-26 19:14 | 13.46588 | 80.07986 | 15553 ft | 367 kts | 338° |
| 2026-04-26 19:14 | 13.48951 | 80.06951 | 16104 ft | 369 kts | 338° |
| 2026-04-26 19:14 | 13.49715 | 80.06617 | 16286 ft | 370 kts | 338° |
| 2026-04-26 19:15 | 13.53681 | 80.04889 | 17212 ft | 374 kts | 338° |
| 2026-04-26 19:15 | 13.56102 | 80.03836 | 17745 ft | 377 kts | 338° |
| 2026-04-26 19:15 | 13.58533 | 80.02780 | 18250 ft | 380 kts | 338° |
| 2026-04-26 19:15 | 13.60982 | 80.01716 | 18700 ft | 383 kts | 338° |
| 2026-04-26 19:16 | 13.63445 | 80.00645 | 19116 ft | 386 kts | 338° |
| 2026-04-26 19:16 | 13.65926 | 79.99566 | 19575 ft | 389 kts | 338° |
| 2026-04-26 19:16 | 13.68393 | 79.98493 | 20002 ft | 391 kts | 338° |
| 2026-04-26 19:16 | 13.70909 | 79.97399 | 20419 ft | 395 kts | 338° |
| 2026-04-26 19:17 | 13.73451 | 79.96294 | 20814 ft | 398 kts | 338° |
| 2026-04-26 19:17 | 13.76019 | 79.95176 | 21237 ft | 401 kts | 337° |
| 2026-04-26 19:17 | 13.78599 | 79.94054 | 21648 ft | 403 kts | 337° |
| 2026-04-26 19:17 | 13.81191 | 79.92925 | 22058 ft | 406 kts | 337° |
| 2026-04-26 19:18 | 13.83766 | 79.91804 | 22440 ft | 409 kts | 337° |
| 2026-04-26 19:18 | 13.86396 | 79.90658 | 22814 ft | 412 kts | 337° |
| 2026-04-26 19:18 | 13.89043 | 79.89505 | 23185 ft | 414 kts | 337° |
| 2026-04-26 19:18 | 13.91714 | 79.88341 | 23546 ft | 417 kts | 336° |
| 2026-04-26 19:19 | 13.94392 | 79.87173 | 23871 ft | 419 kts | 336° |
| 2026-04-26 19:19 | 13.97083 | 79.86000 | 24166 ft | 421 kts | 336° |
| 2026-04-26 19:19 | 13.99789 | 79.84820 | 24478 ft | 423 kts | 336° |
| 2026-04-26 19:19 | 14.02518 | 79.83629 | 24781 ft | 426 kts | 336° |
| 2026-04-26 19:20 | 14.05223 | 79.82449 | 25082 ft | 428 kts | 336° |
| 2026-04-26 19:20 | 14.06154 | 79.82043 | 25186 ft | 429 kts | 336° |
| 2026-04-26 19:20 | 14.10742 | 79.80040 | 25697 ft | 432 kts | 336° |
| 2026-04-26 19:20 | 14.13512 | 79.78831 | 26101 ft | 431 kts | 335° |
| 2026-04-26 19:21 | 14.16265 | 79.77629 | 26556 ft | 429 kts | 335° |
| 2026-04-26 19:21 | 14.19015 | 79.76428 | 26992 ft | 428 kts | 335° |
| 2026-04-26 19:21 | 14.21758 | 79.75230 | 27393 ft | 428 kts | 335° |
| 2026-04-26 19:21 | 14.24464 | 79.74047 | 27762 ft | 429 kts | 335° |
| 2026-04-26 19:22 | 14.27222 | 79.72840 | 27773 ft | 430 kts | 335° |
| 2026-04-26 19:22 | 14.29967 | 79.71640 | 27794 ft | 427 kts | 335° |
| 2026-04-26 19:22 | 14.32705 | 79.70442 | 27794 ft | 427 kts | 335° |
| 2026-04-26 19:22 | 14.35446 | 79.69243 | 27805 ft | 427 kts | 335° |
| 2026-04-26 19:23 | 14.38185 | 79.68044 | 27803 ft | 428 kts | 335° |
| 2026-04-26 19:23 | 14.40003 | 79.67248 | 27802 ft | 428 kts | 335° |
| 2026-04-26 19:23 | 14.42744 | 79.66048 | 27798 ft | 428 kts | 335° |
| 2026-04-26 19:23 | 14.46384 | 79.64453 | 27795 ft | 428 kts | 335° |
| 2026-04-26 19:24 | 14.49130 | 79.63250 | 27795 ft | 428 kts | 335° |
| 2026-04-26 19:24 | 14.51878 | 79.62046 | 27793 ft | 428 kts | 335° |
| 2026-04-26 19:24 | 14.56435 | 79.60048 | 27793 ft | 428 kts | 335° |
| 2026-04-26 19:25 | 14.59178 | 79.58845 | 27794 ft | 427 kts | 335° |
| 2026-04-26 19:25 | 14.60988 | 79.58051 | 27794 ft | 427 kts | 335° |
| 2026-04-26 19:25 | 14.64647 | 79.56445 | 27795 ft | 427 kts | 335° |
| 2026-04-26 19:25 | 14.67362 | 79.55254 | 28151 ft | 417 kts | 335° |
| 2026-04-26 19:26 | 14.69992 | 79.54102 | 28936 ft | 406 kts | 334° |
| 2026-04-26 19:26 | 14.72561 | 79.52975 | 29662 ft | 396 kts | 334° |
| 2026-04-26 19:26 | 14.75096 | 79.51861 | 30021 ft | 395 kts | 334° |
| 2026-04-26 19:26 | 14.77621 | 79.50751 | 30398 ft | 393 kts | 333° |
| 2026-04-26 19:27 | 14.80129 | 79.49648 | 30749 ft | 390 kts | 333° |
| 2026-04-26 19:27 | 14.82618 | 79.48553 | 31124 ft | 387 kts | 333° |
| 2026-04-26 19:27 | 14.85086 | 79.47467 | 31493 ft | 384 kts | 333° |
| 2026-04-26 19:27 | 14.87504 | 79.46403 | 31867 ft | 381 kts | 332° |
| 2026-04-26 19:28 | 14.89926 | 79.45337 | 32244 ft | 377 kts | 332° |
| 2026-04-26 19:28 | 14.92332 | 79.44279 | 32628 ft | 373 kts | 332° |
| 2026-04-26 19:28 | 14.94705 | 79.43234 | 33020 ft | 368 kts | 332° |
| 2026-04-26 19:28 | 14.97048 | 79.42204 | 33404 ft | 363 kts | 331° |
| 2026-04-26 19:29 | 14.99357 | 79.41181 | 33782 ft | 359 kts | 331° |
| 2026-04-26 19:29 | 15.01670 | 79.40146 | 33778 ft | 366 kts | 330° |
| 2026-04-26 19:29 | 15.06414 | 79.38012 | 33814 ft | 378 kts | 331° |
| 2026-04-26 19:30 | 15.11320 | 79.35809 | 33828 ft | 390 kts | 331° |
| 2026-04-26 19:30 | 15.15530 | 79.33922 | 33815 ft | 401 kts | 331° |
| 2026-04-26 19:31 | 15.21598 | 79.31202 | 33837 ft | 415 kts | 332° |
| 2026-04-26 19:31 | 15.26987 | 79.28785 | 33836 ft | 427 kts | 332° |
| 2026-04-26 19:32 | 15.32478 | 79.26322 | 33825 ft | 438 kts | 332° |
| 2026-04-26 19:32 | 15.38136 | 79.23782 | 33840 ft | 448 kts | 332° |
| 2026-04-26 19:33 | 15.43917 | 79.21186 | 33838 ft | 456 kts | 332° |
| 2026-04-26 19:33 | 15.49753 | 79.18566 | 33834 ft | 463 kts | 332° |
| 2026-04-26 19:34 | 15.55665 | 79.15927 | 33813 ft | 453 kts | 332° |
| 2026-04-26 19:34 | 15.58521 | 79.14659 | 33781 ft | 439 kts | 332° |
| 2026-04-26 19:34 | 15.61315 | 79.13415 | 33468 ft | 433 kts | 332° |
| 2026-04-26 19:35 | 15.64022 | 79.12207 | 33215 ft | 425 kts | 332° |
| 2026-04-26 19:35 | 15.66750 | 79.10987 | 32959 ft | 418 kts | 332° |
| 2026-04-26 19:35 | 15.69370 | 79.09815 | 32706 ft | 411 kts | 332° |
| 2026-04-26 19:35 | 15.71986 | 79.08642 | 32462 ft | 407 kts | 332° |
| 2026-04-26 19:36 | 15.74600 | 79.07469 | 32221 ft | 409 kts | 332° |
| 2026-04-26 19:36 | 15.76327 | 79.06693 | 32053 ft | 408 kts | 332° |
| 2026-04-26 19:36 | 15.79823 | 79.05124 | 31380 ft | 409 kts | 333° |
| 2026-04-26 19:36 | 15.82436 | 79.03951 | 30921 ft | 408 kts | 333° |
| 2026-04-26 19:37 | 15.85036 | 79.02786 | 30464 ft | 407 kts | 333° |
| 2026-04-26 19:37 | 15.87633 | 79.01621 | 30016 ft | 406 kts | 333° |
| 2026-04-26 19:37 | 15.90195 | 79.00472 | 29506 ft | 405 kts | 334° |
| 2026-04-26 19:37 | 15.92779 | 78.99313 | 28992 ft | 404 kts | 334° |
| 2026-04-26 19:38 | 15.95365 | 78.98152 | 28479 ft | 404 kts | 334° |
| 2026-04-26 19:38 | 15.97953 | 78.96990 | 27984 ft | 407 kts | 334° |
| 2026-04-26 19:38 | 16.00578 | 78.95810 | 27498 ft | 415 kts | 334° |
| 2026-04-26 19:38 | 16.03297 | 78.94585 | 27043 ft | 436 kts | 334° |
| 2026-04-26 19:39 | 16.06141 | 78.93304 | 26584 ft | 454 kts | 334° |
| 2026-04-26 19:39 | 16.09080 | 78.91982 | 26111 ft | 461 kts | 334° |
| 2026-04-26 19:39 | 16.12038 | 78.90654 | 25640 ft | 463 kts | 335° |
| 2026-04-26 19:39 | 16.14988 | 78.89330 | 25173 ft | 460 kts | 335° |
| 2026-04-26 19:40 | 16.17924 | 78.88012 | 24717 ft | 457 kts | 335° |
| 2026-04-26 19:40 | 16.20837 | 78.86703 | 24272 ft | 455 kts | 335° |
| 2026-04-26 19:40 | 16.23695 | 78.85417 | 23803 ft | 453 kts | 335° |
| 2026-04-26 19:40 | 16.26572 | 78.84122 | 23363 ft | 449 kts | 335° |
| 2026-04-26 19:41 | 16.29433 | 78.82833 | 22846 ft | 446 kts | 335° |
| 2026-04-26 19:41 | 16.32272 | 78.81553 | 22336 ft | 442 kts | 335° |
| 2026-04-26 19:41 | 16.35087 | 78.80284 | 21832 ft | 439 kts | 335° |
| 2026-04-26 19:41 | 16.36939 | 78.79449 | 21510 ft | 436 kts | 335° |
| 2026-04-26 19:42 | 16.40654 | 78.77773 | 20863 ft | 432 kts | 335° |
| 2026-04-26 19:42 | 16.43401 | 78.76534 | 20394 ft | 428 kts | 335° |
| 2026-04-26 19:42 | 16.46134 | 78.75300 | 19923 ft | 425 kts | 335° |
| 2026-04-26 19:42 | 16.48838 | 78.74079 | 19447 ft | 422 kts | 335° |
| 2026-04-26 19:43 | 16.51492 | 78.72880 | 18781 ft | 419 kts | 336° |
| 2026-04-26 19:43 | 16.54132 | 78.71687 | 18102 ft | 408 kts | 336° |
| 2026-04-26 19:43 | 16.56706 | 78.70524 | 17344 ft | 398 kts | 336° |
| 2026-04-26 19:43 | 16.59225 | 78.69385 | 16597 ft | 389 kts | 336° |
| 2026-04-26 19:44 | 16.61688 | 78.68271 | 15872 ft | 382 kts | 336° |
| 2026-04-26 19:44 | 16.64110 | 78.67178 | 15158 ft | 375 kts | 336° |
| 2026-04-26 19:44 | 16.66484 | 78.66107 | 14465 ft | 368 kts | 337° |
| 2026-04-26 19:44 | 16.68819 | 78.65053 | 13786 ft | 363 kts | 337° |
| 2026-04-26 19:45 | 16.71116 | 78.64017 | 13045 ft | 357 kts | 337° |
| 2026-04-26 19:45 | 16.73387 | 78.62991 | 12303 ft | 353 kts | 337° |
| 2026-04-26 19:45 | 16.75627 | 78.61980 | 11586 ft | 349 kts | 337° |
| 2026-04-26 19:45 | 16.77818 | 78.60990 | 10890 ft | 346 kts | 337° |
| 2026-04-26 19:46 | 16.80019 | 78.59995 | 10197 ft | 343 kts | 337° |
| 2026-04-26 19:46 | 16.82200 | 78.59010 | 9498 ft | 340 kts | 337° |
| 2026-04-26 19:46 | 16.84362 | 78.58032 | 8763 ft | 338 kts | 337° |
| 2026-04-26 19:46 | 16.86500 | 78.57065 | 8300 ft | 328 kts | 337° |
| 2026-04-26 19:47 | 16.88548 | 78.56138 | 8157 ft | 317 kts | 336° |
| 2026-04-26 19:47 | 16.89890 | 78.55531 | 8090 ft | 319 kts | 336° |
| 2026-04-26 19:47 | 16.92642 | 78.54285 | 7949 ft | 323 kts | 336° |
| 2026-04-26 19:47 | 16.94697 | 78.53355 | 7922 ft | 320 kts | 336° |
| 2026-04-26 19:48 | 16.96745 | 78.52427 | 7903 ft | 321 kts | 336° |
| 2026-04-26 19:48 | 16.97931 | 78.51890 | 7893 ft | 321 kts | 336° |
| 2026-04-26 19:48 | 16.99768 | 78.51058 | 7868 ft | 321 kts | 336° |
| 2026-04-26 19:48 | 17.01822 | 78.50124 | 7846 ft | 321 kts | 336° |
| 2026-04-26 19:49 | 17.03879 | 78.49187 | 7712 ft | 325 kts | 336° |
| 2026-04-26 19:49 | 17.05973 | 78.48233 | 7471 ft | 326 kts | 336° |
| 2026-04-26 19:49 | 17.08033 | 78.47295 | 7223 ft | 319 kts | 336° |
| 2026-04-26 19:49 | 17.10023 | 78.46388 | 6995 ft | 313 kts | 336° |
| 2026-04-26 19:50 | 17.11967 | 78.45426 | 6752 ft | 306 kts | 326° |
| 2026-04-26 19:50 | 17.13431 | 78.43885 | 6498 ft | 295 kts | 301° |
| 2026-04-26 19:50 | 17.14188 | 78.41948 | 6273 ft | 283 kts | 281° |
| 2026-04-26 19:50 | 17.14317 | 78.39935 | 6049 ft | 273 kts | 269° |
| 2026-04-26 19:51 | 17.14266 | 78.37979 | 5795 ft | 265 kts | 267° |
| 2026-04-26 19:51 | 17.14209 | 78.36073 | 5551 ft | 258 kts | 267° |
| 2026-04-26 19:51 | 17.14161 | 78.34235 | 5310 ft | 252 kts | 267° |
| 2026-04-26 19:51 | 17.14117 | 78.32420 | 5086 ft | 244 kts | 267° |
| 2026-04-26 19:52 | 17.14079 | 78.30691 | 4873 ft | 232 kts | 266° |
| 2026-04-26 19:52 | 17.14044 | 78.29054 | 4677 ft | 217 kts | 266° |
| 2026-04-26 19:52 | 17.14013 | 78.27544 | 4599 ft | 199 kts | 266° |
| 2026-04-26 19:52 | 17.13983 | 78.26098 | 4612 ft | 199 kts | 266° |
| 2026-04-26 19:53 | 17.13952 | 78.24670 | 4597 ft | 198 kts | 266° |
| 2026-04-26 19:53 | 17.14057 | 78.23243 | 4571 ft | 197 kts | 288° |
| 2026-04-26 19:53 | 17.14844 | 78.22156 | 4603 ft | 184 kts | 321° |
| 2026-04-26 19:53 | 17.15991 | 78.21654 | 4610 ft | 179 kts | 351° |
| 2026-04-26 19:54 | 17.17231 | 78.21585 | 4596 ft | 178 kts | 357° |
| 2026-04-26 19:54 | 17.18506 | 78.21539 | 4629 ft | 188 kts | 357° |
| 2026-04-26 19:54 | 17.19830 | 78.21509 | 4595 ft | 191 kts | 5° |
| 2026-04-26 19:54 | 17.21063 | 78.21966 | 4602 ft | 189 kts | 34° |
| 2026-04-26 19:55 | 17.21957 | 78.22962 | 4579 ft | 189 kts | 71° |
| 2026-04-26 19:55 | 17.22238 | 78.24258 | 4626 ft | 184 kts | 82° |
| 2026-04-26 19:55 | 17.22432 | 78.25540 | 4597 ft | 173 kts | 84° |
| 2026-04-26 19:55 | 17.22588 | 78.26767 | 4542 ft | 169 kts | 87° |
| 2026-04-26 19:56 | 17.22665 | 78.27999 | 4377 ft | 171 kts | 91° |
| 2026-04-26 19:56 | 17.22697 | 78.29236 | 4162 ft | 169 kts | 92° |
| 2026-04-26 19:56 | 17.22717 | 78.30452 | 3952 ft | 165 kts | 94° |
| 2026-04-26 19:56 | 17.22732 | 78.31650 | 3753 ft | 164 kts | 94° |
| 2026-04-26 19:57 | 17.22747 | 78.32849 | 3548 ft | 164 kts | 94° |
| 2026-04-26 19:57 | 17.22763 | 78.34042 | 3349 ft | 164 kts | 94° |
| 2026-04-26 19:57 | 17.22778 | 78.35216 | 3145 ft | 164 kts | 94° |
| 2026-04-26 19:57 | 17.22793 | 78.36406 | 2949 ft | 163 kts | 94° |
| 2026-04-26 19:58 | 17.22808 | 78.37585 | 2732 ft | 161 kts | 92° |
| 2026-04-26 19:58 | 17.22825 | 78.38744 | 2503 ft | 158 kts | 91° |
| 2026-04-26 19:58 | 17.22835 | 78.39883 | 2263 ft | 154 kts | 90° |
| 2026-04-26 19:58 | 17.22853 | 78.40981 | 2063 ft | 149 kts | 90° |
| 2026-04-26 19:59 | 17.22865 | 78.42036 | 1980 ft | 136 kts | 89° |
| 2026-04-26 19:59 | 17.22875 | 78.42801 | 1979 ft | 48 kts | 89° |
| 2026-04-26 19:59 | 17.22908 | 78.43109 | 1982 ft | 36 kts | 71° |
| 2026-04-26 19:59 | 17.23001 | 78.43288 | 1979 ft | 12 kts | 57° |
| 2026-04-26 20:00 | 17.23043 | 78.43358 | 1980 ft | 11 kts | 61° |
| 2026-04-26 20:00 | 17.23081 | 78.43428 | 1978 ft | 11 kts | 59° |
| 2026-04-26 20:00 | 17.23096 | 78.43502 | 1981 ft | 11 kts | 98° |
| 2026-04-26 20:00 | 17.23092 | 78.43593 | 1979 ft | 13 kts | 90° |
| 2026-04-26 20:01 | 17.23113 | 78.43680 | 1980 ft | 12 kts | 49° |
| 2026-04-26 20:01 | 17.23192 | 78.43700 | 1981 ft | 12 kts | 357° |
| 2026-04-26 20:01 | 17.23275 | 78.43696 | 1980 ft | 12 kts | 357° |
| 2026-04-26 20:01 | 17.23356 | 78.43693 | 1980 ft | 11 kts | 359° |
| 2026-04-26 20:02 | 17.23369 | 78.43683 | 1980 ft | 1 kts | 281° |
| 2026-04-26 20:02 | 17.23369 | 78.43653 | 1979 ft | 6 kts | 270° |
| 2026-04-26 20:02 | 17.23369 | 78.43608 | 1979 ft | 6 kts | 270° |
| 2026-04-26 20:02 | 17.23369 | 78.43578 | 1979 ft | 6 kts | 270° |
| 2026-04-26 20:03 | 17.23375 | 78.43531 | 1980 ft | 3 kts | 317° |
| 2026-04-26 20:03 | 17.23396 | 78.43530 | 1979 ft | 3 kts | 5° |
| 2026-04-26 20:03 | 17.23422 | 78.43531 | 1982 ft | 4 kts | 1° |
| 2026-04-26 20:03 | 17.23425 | 78.43531 | 1982 ft | 0 kts | 1° |